KORDKSBD

Guest
Details From KORD - Chicago Ohare Intl
To KSBD - San Bernardino Intl
Flight Number -
Tags Generated
Created
Modified
Stats Distance 1,458 nm / 2,700 km
Max Altitude 0 ft / 0 m
Waypoints 8
Social Downloads 0
Likes 0
Share VATSIM

Download

Looking for another format? Having issues loading an existing format? Contact us
Advertisement - Login to hide

Notes

Generated

Route

KORD OAKLY BYLUE SELLS TANRE GUCRU GRAMM KSBD

ID Type Via Altitude Latitude Longitude Leg Dist Tot Dist Heading (true) Name
O KORD APT - 0 ft / 0 m 42.00283˚ -87.92668˚ - 0 nm - -
OAKLY FIX - 0 ft / 0 m 41.11189˚ -93.42475˚ 252 nm 252 nm 260° / 256° -
BYLUE FIX - 0 ft / 0 m 39.93647˚ -98.84867˚ 257 nm 510 nm 256° / 252° -
SELLS FIX - 0 ft / 0 m 38.82606˚ -103.16847˚ 211 nm 721 nm 253° / 250° -
TANRE FIX - 0 ft / 0 m 37.33938˚ -108.31407˚ 259 nm 980 nm 251° / 248° -
GUCRU FIX - 0 ft / 0 m 35.89392˚ -112.42925˚ 216 nm 1197 nm 248° / 245° -
GRAMM FIX - 0 ft / 0 m 34.10911˚ -117.10684˚ 253 nm 1450 nm 246° / 244° -
O KSBD APT - 0 ft / 0 m 34.09073˚ -117.25038˚ 7 nm 1458 nm 261° / 261° -

Altitude Profile

Advertisement - Login to hide

Weather


0- 5 10 15 20 25 30 35+ Temperature / ° C

Clouds and Precipitation
Forecast for 2017-12-11 12:00 UTC. Updated an hour ago

Ground ~20,000 ft ~40,000 ft Winds

KORD

Details ICAO KORD (ORD)
Name CHICAGO OHARE INTL
Region United States
Timezone America/Chicago (UTC-6.0)
Stats Elevation 668 ft / 204 m (AMSL)
Location 41.982736° -87.906308°
Runways 7
Magnetic Variation 3.732° W

METAR

KORD 110751Z 00000KT 10SM SCT025 M04/M08 A3004 RMK AO2 SLP182 T10441083 $

Decode

TAF

KORD 110527Z 1106/1212 33004KT P6SM BKN025 FM110800 21005KT P6SM SCT030 BKN080 TEMPO 1111/1114 4SM -SHSN OVC040 FM111400 19008KT P6SM SCT030 BKN050 BKN120 PROB30 1118/1120 3SM -RASN OVC050 FM112200 VRB04KT P6SM SCT025 OVC050 PROB30 1123/1202 1 1/2SM -SN OVC025 FM120200 33018G30KT P6SM -SHSN OVC025

Decode

Departure Runways

ID Width Length Bearing (true) Bearing (mag) Surface Threshold Offset Overrun Length
04L 150 ft / 46 m 7,498 ft / 2,286 m 39.39° 43.12° Asphalt 0 ft / 0 m 400 ft / 122 m
04R 150 ft / 46 m 8,073 ft / 2,461 m 41.39° 45.12° Asphalt 0 ft / 0 m 200 ft / 61 m
09L 150 ft / 46 m 7,482 ft / 2,281 m 89.99° 93.72° Concrete 0 ft / 0 m 400 ft / 122 m
09R 150 ft / 46 m 7,948 ft / 2,423 m 89.98° 93.71° Asphalt 0 ft / 0 m 98 ft / 30 m
10 150 ft / 46 m 12,970 ft / 3,953 m 89.86° 93.59° Asphalt 0 ft / 0 m 200 ft / 61 m
14L 150 ft / 46 m 10,003 ft / 3,049 m 140.10° 143.83° Asphalt 1,998 ft / 609 m 30 ft / 9 m
14R 200 ft / 61 m 9,694 ft / 2,955 m 140.09° 143.82° Asphalt 0 ft / 0 m 151 ft / 46 m
22L 150 ft / 46 m 8,073 ft / 2,461 m 221.41° 225.14° Asphalt 0 ft / 0 m 200 ft / 61 m
22R 150 ft / 46 m 7,498 ft / 2,286 m 219.40° 223.13° Asphalt 0 ft / 0 m 200 ft / 61 m
27L 150 ft / 46 m 7,948 ft / 2,423 m 270.00° 273.73° Asphalt 0 ft / 0 m 200 ft / 61 m
27R 150 ft / 46 m 7,482 ft / 2,281 m 270.01° 273.74° Concrete 0 ft / 0 m 400 ft / 122 m
28 150 ft / 46 m 12,970 ft / 3,953 m 269.90° 273.63° Asphalt 0 ft / 0 m 220 ft / 67 m
32L 200 ft / 61 m 9,694 ft / 2,955 m 320.10° 323.83° Asphalt 0 ft / 0 m 413 ft / 126 m
32R 150 ft / 46 m 10,003 ft / 3,049 m 320.11° 323.84° Asphalt 0 ft / 0 m 0 ft / 0 m

KSBD

Details ICAO KSBD (SBD)
Name San Bernardino Intl
Region United States
Timezone America/Los_Angeles (UTC-8.0)
Stats Elevation 1,157 ft / 353 m (AMSL)
Location 34.095343° -117.234869°
Runways 1
Magnetic Variation 11.792° E

METAR

KSBD 110800Z AUTO 13006KT 10SM CLR 13/M09 A3021 RMK AO2 T01271088

Decode

TAF

TAF KSBD 110525Z 1106/1206 VRB06KT P6SM BKN250= TAF KLND 110529Z 1106/1206 VRB06KT P6SM SCT250

Decode

Destination Runways

ID Width Length Bearing (true) Bearing (mag) Surface Threshold Offset Overrun Length
06 180 ft / 55 m 9,963 ft / 3,037 m 70.26° 58.47° Asphalt 0 ft / 0 m 1,000 ft / 305 m
24 180 ft / 55 m 9,963 ft / 3,037 m 250.27° 238.48° Asphalt 0 ft / 0 m 1,000 ft / 305 m

Approach Navaids

Runway Type Ident Frequency Range Bearing (true) Bearing (mag) Slope Elevation
06 Localiser ISBD 109.30 MHz 18 nm / 33 km 70.31° 58.52° - 1,086 ft / 331 m (AMSL)
06 Glidescope ISBD 109.30 MHz 10 nm / 19 km 70.27° 58.47° 3.00° 1,157 ft / 353 m (AMSL)

Popular Alternatives